MiSS Danielle — WDG8493 — position and weather

sailwx.info

Track history (hours):
 
Tides and Currents Weather Stations Pressure Air Temp Water Temp Dewpoint Dewpoint Depression Visibility Wind Speed Wind Dir Waves Ship Positions

MiSS Danielle

Owner: Chem Carriers Towing, LLC, Sunshine, LA. More information available from US FCC via Universal Licensing System and Coast Guard Vessel Documentation Center.

Last reported at 2018-Jul-19 23:00 UTC. Time now 2018-Jul-19 23:02 UTC.
Position N 29°34' W 094°28'.

Length 24 m; draft 2.9 m.

Type: Towing. MMSI: 367578080.

Date/timePositionNaut miles runAvg speedWind from/ knotsBaromVisibWave heightAir tempDewpointWater temp
2018-Jul-19 23:00N 29°34' W 094°28'3 4.7
2018-Jul-19 22:27N 29°31' W 094°30'2 4.6
2018-Jul-19 21:59N 29°31' W 094°32'0 0.0
2018-Jul-19 21:24N 29°31' W 094°32'0 0.6
2018-Jul-19 20:59N 29°31' W 094°32'2 4.7
2018-Jul-19 20:29N 29°30' W 094°35'2 4.8
2018-Jul-19 20:00N 29°29' W 094°37'2 4.8
2018-Jul-19 19:30N 29°28' W 094°40'2 4.8
2018-Jul-19 19:01N 29°27' W 094°42'3 5.2
2018-Jul-19 18:29N 29°25' W 094°44'2 4.2
2018-Jul-19 18:00N 29°23' W 094°46'2 4.5
2018-Jul-19 17:30N 29°22' W 094°48'2 4.8
2018-Jul-19 17:01N 29°24' W 094°49'3 5.0
2018-Jul-19 16:30N 29°27' W 094°50'3 5.2
2018-Jul-19 15:56N 29°29' W 094°52'2 5.2
2018-Jul-19 15:30N 29°31' W 094°53'3 5.3
2018-Jul-19 15:00N 29°33' W 094°55'5 5.4
2018-Jul-19 14:00N 29°38' W 094°58'3 5.8
2018-Jul-19 13:30N 29°41' W 094°59'3 5.5
2018-Jul-19 13:00N 29°43' W 095°01'2 4.9
2018-Jul-19 12:29N 29°44' W 095°04'2 4.9
2018-Jul-19 11:59N 29°46' W 095°06'1 1.1
2018-Jul-19 11:30N 29°46' W 095°06'0 0.1
2018-Jul-19 11:01N 29°46' W 095°06'0 1.0
2018-Jul-19 10:30N 29°46' W 095°06'2 2.9
2018-Jul-19 09:54N 29°44' W 095°07'2 5.6
2018-Jul-19 09:29N 29°44' W 095°09'2 5.2
2018-Jul-19 09:01N 29°44' W 095°12'0 0.5
2018-Jul-19 08:30N 29°44' W 095°12'0 0.0
2018-Jul-19 08:01N 29°44' W 095°12'0 0.0
2018-Jul-19 07:30N 29°44' W 095°12'0 0.0
2018-Jul-19 07:00N 29°44' W 095°12'0 0.0
2018-Jul-19 06:30N 29°44' W 095°12'0 0.0
2018-Jul-19 06:00N 29°44' W 095°12'0 0.0
2018-Jul-19 05:29N 29°44' W 095°12'0 0.0
2018-Jul-19 04:55N 29°44' W 095°12'0 0.0
2018-Jul-19 04:30N 29°44' W 095°12'0 0.0
2018-Jul-19 04:00N 29°44' W 095°12'0 0.0
2018-Jul-19 03:30N 29°44' W 095°12'0 0.0
2018-Jul-19 02:58N 29°44' W 095°12'0 0.0
2018-Jul-19 02:30N 29°44' W 095°12'1 0.2
2018-Jul-18 18:25N 29°45' W 095°11'3 5.3
2018-Jul-18 17:54N 29°44' W 095°08'2 4.9
2018-Jul-18 17:25N 29°45' W 095°06'1 2.9
2018-Jul-18 17:00N 29°46' W 095°06'0 0.2
2018-Jul-18 16:12N 29°46' W 095°06'0 0.0
2018-Jul-18 15:53N 29°46' W 095°06'0 0.3
2018-Jul-18 15:24N 29°46' W 095°06'1 2.0
2018-Jul-18 15:01N 29°46' W 095°05'3 5.8
2018-Jul-18 14:29N 29°44' W 095°08'4 3.3
2018-Jul-18 13:25N 29°44' W 095°12'0 0.0
2018-Jul-18 13:00N 29°44' W 095°12'0 0.0
2018-Jul-18 12:30N 29°44' W 095°12'0 0.0
2018-Jul-18 11:58N 29°44' W 095°12'0 0.0
2018-Jul-18 11:30N 29°44' W 095°12'0 0.0
2018-Jul-18 10:30N 29°44' W 095°12'0 0.0
2018-Jul-18 10:00N 29°44' W 095°12'0 0.0
2018-Jul-18 09:30N 29°44' W 095°12'0 0.0
2018-Jul-18 09:00N 29°44' W 095°12'0 0.0
2018-Jul-18 08:30N 29°44' W 095°12'0 0.0
2018-Jul-18 07:59N 29°44' W 095°12'0 0.0
2018-Jul-18 07:30N 29°44' W 095°12'0 0.0
2018-Jul-18 06:59N 29°44' W 095°12'0 0.0
2018-Jul-18 06:29N 29°44' W 095°12'0 0.0
2018-Jul-18 06:00N 29°44' W 095°12'0 0.0
2018-Jul-18 05:30N 29°44' W 095°12'0 0.0
2018-Jul-18 04:58N 29°44' W 095°12'0 0.0
2018-Jul-18 04:30N 29°44' W 095°12'0 0.0
2018-Jul-18 03:59N 29°44' W 095°12'0 0.0
2018-Jul-18 03:30N 29°44' W 095°12'0 0.0
2018-Jul-18 02:51N 29°44' W 095°12'0 0.0
2018-Jul-18 02:26N 29°44' W 095°12'0 0.0
2018-Jul-17 21:40N 29°44' W 095°12'2 3.3
2018-Jul-17 21:12N 29°45' W 095°11'1 5.7
2018-Jul-17 21:00N 29°44' W 095°09'3 5.8
2018-Jul-17 20:29N 29°45' W 095°06'2 2.6
2018-Jul-17 19:53N 29°46' W 095°06'0 0.1
2018-Jul-17 14:05N 29°47' W 095°06'0 0.0
2018-Jul-17 13:53N 29°47' W 095°06'0 0.0
2018-Jul-17 13:21N 29°47' W 095°06'0 0.0
2018-Jul-17 13:00N 29°47' W 095°06'0 0.0
2018-Jul-17 12:30N 29°47' W 095°06'0 0.0
2018-Jul-17 12:00N 29°47' W 095°06'0 0.0
2018-Jul-17 11:26N 29°47' W 095°06'0 0.0
2018-Jul-17 11:00N 29°47' W 095°06'0 0.0
2018-Jul-17 10:29N 29°47' W 095°06'0 0.0
2018-Jul-17 10:01N 29°47' W 095°06'0 0.0
2018-Jul-17 09:30N 29°47' W 095°06'0 0.0
2018-Jul-17 08:58N 29°47' W 095°06'0 0.0
2018-Jul-17 08:30N 29°47' W 095°06'0 0.0
2018-Jul-17 08:00N 29°47' W 095°06'0 0.0
2018-Jul-17 07:30N 29°47' W 095°06'0 0.0
2018-Jul-17 07:00N 29°47' W 095°06'0 0.0
2018-Jul-17 06:30N 29°47' W 095°06'0 0.0
2018-Jul-17 06:00N 29°47' W 095°06'0 0.0
2018-Jul-17 05:30N 29°47' W 095°06'0 0.0
2018-Jul-17 05:00N 29°47' W 095°06'0 0.0
2018-Jul-17 04:30N 29°47' W 095°06'0 0.9
2018-Jul-17 04:00N 29°46' W 095°06'0 0.2
2018-Jul-17 03:28N 29°46' W 095°06'0 0.0
2018-Jul-17 02:39N 29°46' W 095°06'0 0.5
2018-Jul-17 02:27N 29°46' W 095°06'0 0.1
2018-Jul-17 01:59N 29°46' W 095°06'2 3.4
2018-Jul-17 01:30N 29°46' W 095°04'3 5.3
2018-Jul-17 01:00N 29°44' W 095°02'2 4.8
2018-Jul-17 00:29N 29°42' W 095°00'5 5.5
2018-Jul-16 23:30N 29°37' W 094°57'3 5.9
2018-Jul-16 23:00N 29°35' W 094°56'3 6.1
2018-Jul-16 22:30N 29°32' W 094°54'3 5.9
2018-Jul-16 21:59N 29°30' W 094°52'3 6.1
2018-Jul-16 21:29N 29°27' W 094°50'3 5.9
2018-Jul-16 20:57N 29°24' W 094°49'2 5.0
2018-Jul-16 20:30N 29°22' W 094°47'3 5.7
2018-Jul-16 20:00N 29°24' W 094°45'3 5.7
2018-Jul-16 19:29N 29°26' W 094°42'3 5.1
2018-Jul-16 18:51N 29°28' W 094°39'2 5.1
2018-Jul-16 18:26N 29°29' W 094°37'3 5.3
2018-Jul-16 17:57N 29°30' W 094°34'2 5.2
2018-Jul-16 17:29N 29°31' W 094°32'5 5.0
2018-Jul-16 16:34N 29°34' W 094°28'0 5.2
2018-Jul-16 16:30N 29°34' W 094°27'1 1.0
2018-Jul-16 15:54N 29°34' W 094°27'1 1.5
2018-Jul-16 15:30N 29°34' W 094°26'2 4.5
2018-Jul-16 15:00N 29°36' W 094°24'2 5.0
2018-Jul-16 14:30N 29°36' W 094°22'2 3.4
2018-Jul-16 14:00N 29°37' W 094°20'3 5.4
2018-Jul-16 13:30N 29°38' W 094°17'3 5.5
2018-Jul-16 13:00N 29°40' W 094°14'2 4.5
2018-Jul-16 12:30N 29°41' W 094°12'3 5.8
2018-Jul-16 12:00N 29°42' W 094°09'2 5.0
2018-Jul-16 11:30N 29°43' W 094°07'3 5.6
2018-Jul-16 11:00N 29°45' W 094°04'1 2.9
2018-Jul-16 10:31N 29°46' W 094°03'2 4.5
2018-Jul-16 10:01N 29°47' W 094°01'3 5.1
2018-Jul-16 09:30N 29°49' W 093°59'3 5.4
2018-Jul-16 09:00N 29°51' W 093°57'4 7.5
2018-Jul-16 08:30N 29°54' W 093°54'4 7.4
2018-Jul-16 08:00N 29°57' W 093°52'3 5.6
2018-Jul-16 07:30N 29°59' W 093°49'3 6.6
2018-Jul-16 07:00N 30°01' W 093°46'3 6.2
2018-Jul-16 06:30N 30°03' W 093°44'3 5.8
2018-Jul-16 06:00N 30°04' W 093°40'3 5.9
2018-Jul-16 05:30N 30°04' W 093°37'2 4.1
2018-Jul-16 05:00N 30°04' W 093°35'2 3.3
2018-Jul-16 04:30N 30°04' W 093°33'2 3.6
2018-Jul-16 03:59N 30°04' W 093°30'2 3.6
2018-Jul-16 03:30N 30°04' W 093°28'1 2.4
2018-Jul-16 03:00N 30°04' W 093°27'2 3.1
2018-Jul-16 02:30N 30°04' W 093°25'2 3.9
2018-Jul-16 02:01N 30°04' W 093°23'2 4.4
2018-Jul-16 01:30N 30°04' W 093°21'2 3.1
2018-Jul-16 01:00N 30°05' W 093°20'1 1.7
2018-Jul-16 00:30N 30°06' W 093°19'1 1.3
2018-Jul-16 00:00N 30°06' W 093°18'1 1.9
2018-Jul-15 23:30N 30°05' W 093°17'1 1.1
2018-Jul-15 23:00N 30°05' W 093°17'0 0.0
2018-Jul-15 22:30N 30°05' W 093°17'0 0.1
2018-Jul-15 22:00N 30°05' W 093°17'0 0.0
2018-Jul-15 21:30N 30°05' W 093°17'0 0.0
2018-Jul-15 21:00N 30°05' W 093°17'0 0.0
2018-Jul-15 20:30N 30°05' W 093°17'0 0.0
2018-Jul-15 20:01N 30°05' W 093°17'0 0.0
2018-Jul-15 19:30N 30°05' W 093°17'0 0.0
2018-Jul-15 18:57N 30°05' W 093°17'0 0.0
2018-Jul-15 18:30N 30°05' W 093°17'0 0.0
2018-Jul-15 18:00N 30°05' W 093°17'0 0.0
2018-Jul-15 17:30N 30°05' W 093°17'0 0.0
2018-Jul-15 17:00N 30°05' W 093°17'0 0.0
2018-Jul-15 16:30N 30°05' W 093°17'0 0.0
2018-Jul-15 16:00N 30°05' W 093°17'0 0.0
2018-Jul-15 15:31N 30°05' W 093°17'0 0.0
2018-Jul-15 15:00N 30°05' W 093°17'0 0.0
2018-Jul-15 14:30N 30°05' W 093°17'0 0.0
2018-Jul-15 14:00N 30°05' W 093°17'0 0.1
2018-Jul-15 13:30N 30°05' W 093°17'0 0.0
2018-Jul-15 13:00N 30°05' W 093°17'0 0.0
2018-Jul-15 12:30N 30°05' W 093°17'0 0.3
2018-Jul-15 12:00N 30°05' W 093°17'1 1.2
2018-Jul-15 11:29N 30°04' W 093°16'0 0.2
2018-Jul-15 11:00N 30°04' W 093°16'1 1.5
2018-Jul-15 10:30N 30°03' W 093°16'0 0.7
2018-Jul-15 10:00N 30°03' W 093°16'0 0.1
2018-Jul-15 09:30N 30°03' W 093°16'2 3.4
2018-Jul-15 08:59N 30°02' W 093°14'2 4.5
2018-Jul-15 08:30N 29°60' W 093°13'0 0.5
2018-Jul-15 08:00N 29°60' W 093°13'0 0.0
2018-Jul-15 07:30N 29°60' W 093°13'0 0.0
2018-Jul-15 07:00N 29°60' W 093°13'0 0.0
2018-Jul-15 06:30N 29°60' W 093°13'1 1.0
2018-Jul-15 06:00N 29°59' W 093°13'1 1.9
2018-Jul-15 05:30N 29°59' W 093°12'0 0.0
2018-Jul-15 05:00N 29°59' W 093°12'0 0.0
2018-Jul-15 04:30N 29°59' W 093°12'0 0.0
2018-Jul-15 04:00N 29°59' W 093°12'0 0.0
2018-Jul-15 03:30N 29°59' W 093°12'0 0.0
2018-Jul-15 03:00N 29°59' W 093°12'0 0.0
2018-Jul-15 02:30N 29°59' W 093°12'0 0.0
2018-Jul-15 02:00N 29°59' W 093°12'0 0.0
2018-Jul-15 01:30N 29°59' W 093°12'0 0.0
2018-Jul-15 01:00N 29°59' W 093°12'0 0.0
2018-Jul-15 00:30N 29°59' W 093°12'0 0.0
2018-Jul-15 00:00N 29°59' W 093°12'0 0.0
2018-Jul-14 23:30N 29°59' W 093°12'0 0.0
2018-Jul-14 23:00N 29°59' W 093°12'0 0.0
2018-Jul-14 22:30N 29°59' W 093°12'0 0.0
2018-Jul-14 22:00N 29°59' W 093°12'0 0.0
2018-Jul-14 21:30N 29°59' W 093°12'0 0.0
2018-Jul-14 21:00N 29°59' W 093°12'0 0.1
2018-Jul-14 20:30N 29°59' W 093°12'0 0.0
2018-Jul-14 20:00N 29°59' W 093°12'0 0.0
2018-Jul-14 19:30N 29°59' W 093°12'0 0.0
2018-Jul-14 19:00N 29°59' W 093°12'0 0.0
2018-Jul-14 18:30N 29°59' W 093°12'0 0.0
2018-Jul-14 18:00N 29°59' W 093°12'0 0.0
2018-Jul-14 17:30N 29°59' W 093°12'0 0.0
2018-Jul-14 17:00N 29°59' W 093°12'0 0.0
2018-Jul-14 16:30N 29°59' W 093°12'1 2.0
2018-Jul-14 16:00N 29°58' W 093°11'1 3.0
2018-Jul-14 15:30N 29°57' W 093°10'1 2.6
2018-Jul-14 15:00N 29°56' W 093°09'1 1.8
2018-Jul-14 14:30N 29°56' W 093°08'0 0.0
2018-Jul-14 13:30N 29°56' W 093°08'0 0.0
2018-Jul-14 13:00N 29°56' W 093°08'0 0.0
2018-Jul-14 12:30N 29°56' W 093°08'0 0.0
2018-Jul-14 12:00N 29°56' W 093°08'0 0.0
2018-Jul-14 11:30N 29°56' W 093°08'0 0.0
2018-Jul-14 11:00N 29°56' W 093°08'0 0.0
2018-Jul-14 10:30N 29°56' W 093°08'0 0.0
2018-Jul-14 10:00N 29°56' W 093°08'0 0.0
2018-Jul-14 09:30N 29°56' W 093°08'0 0.0
2018-Jul-14 09:00N 29°56' W 093°08'0 0.0
2018-Jul-14 08:30N 29°56' W 093°08'0 0.0
2018-Jul-14 08:00N 29°56' W 093°08'0 0.0
2018-Jul-14 07:30N 29°56' W 093°08'0 0.0
2018-Jul-14 07:00N 29°56' W 093°08'0 0.0
2018-Jul-14 06:30N 29°56' W 093°08'0 0.0
2018-Jul-14 06:01N 29°56' W 093°08'0 0.0
2018-Jul-14 05:31N 29°56' W 093°08'0 0.0
2018-Jul-14 05:00N 29°56' W 093°08'0 0.0
2018-Jul-14 04:30N 29°56' W 093°08'0 0.0
2018-Jul-14 04:00N 29°56' W 093°08'0 0.0
2018-Jul-14 03:31N 29°56' W 093°08'0 0.0
2018-Jul-14 03:00N 29°56' W 093°08'0 0.2
2018-Jul-14 02:30N 29°56' W 093°08'0 0.0
2018-Jul-14 01:55N 29°56' W 093°08'0 0.0
2018-Jul-14 01:26N 29°56' W 093°08'0 0.0
2018-Jul-14 00:51N 29°56' W 093°08'0 0.0
2018-Jul-14 00:23N 29°56' W 093°08'0 0.0
2018-Jul-14 00:00N 29°56' W 093°08'1 2.6
2018-Jul-13 23:27N 29°56' W 093°06'2 4.6
2018-Jul-13 22:59N 29°56' W 093°03'0 0.5
2018-Jul-13 22:30N 29°56' W 093°03'0 0.0
2018-Jul-13 21:59N 29°56' W 093°03'0 0.0
2018-Jul-13 21:28N 29°56' W 093°03'0 0.0
2018-Jul-13 20:56N 29°56' W 093°03'0 0.0
2018-Jul-13 20:29N 29°56' W 093°03'0 0.0
2018-Jul-13 20:00N 29°56' W 093°03'0 0.0
2018-Jul-13 19:24N 29°56' W 093°03'0 0.0
2018-Jul-13 19:00N 29°56' W 093°03'0 0.0
2018-Jul-13 18:29N 29°56' W 093°03'0 0.0
2018-Jul-13 18:00N 29°56' W 093°03'0 0.0
2018-Jul-13 17:30N 29°56' W 093°03'0 0.3
2018-Jul-13 17:00N 29°56' W 093°03'6 0.6
2018-Jul-13 06:55N 29°56' W 092°56'5 3.9
2018-Jul-13 05:35N 29°58' W 092°50'21 5.1
2018-Jul-13 01:27N 29°53' W 092°26'3 5.1
2018-Jul-13 00:57N 29°53' W 092°23'2 5.0
2018-Jul-13 00:30N 29°51' W 092°22'3 5.2
2018-Jul-13 00:00N 29°50' W 092°19'2 3.7
2018-Jul-12 23:31N 29°49' W 092°17'2 3.8
2018-Jul-12 22:59N 29°48' W 092°15'2 5.0
2018-Jul-12 22:30N 29°47' W 092°13'1 1.4
2018-Jul-12 22:00N 29°47' W 092°12'2 4.8
2018-Jul-12 21:31N 29°47' W 092°09'3 5.8
2018-Jul-12 21:00N 29°48' W 092°06'3 5.8
2018-Jul-12 20:30N 29°49' W 092°03'3 5.6
2018-Jul-12 20:00N 29°50' W 091°60'3 5.5
2018-Jul-12 19:31N 29°51' W 091°57'  
Track history (hours):
 
Tides and Currents Weather Stations Pressure Air Temp Water Temp Dewpoint Dewpoint Depression Visibility Wind Speed Wind Dir Waves Ship Positions

MiSS Danielle

Owner: Chem Carriers Towing, LLC, Sunshine, LA. More information available from US FCC via Universal Licensing System and Coast Guard Vessel Documentation Center.

Last reported at 2018-Jul-19 23:00 UTC. Time now 2018-Jul-19 23:02 UTC.
Position N 29°34' W 094°28'.

Length 24 m; draft 2.9 m.

Type: Towing. MMSI: 367578080.

Date/timePositionNaut miles runAvg speedWind from/ knotsBaromVisibWave heightAir tempDewpointWater temp
2018-Jul-19 23:00N 29°34' W 094°28'3 4.7
2018-Jul-19 22:27N 29°31' W 094°30'2 4.6
2018-Jul-19 21:59N 29°31' W 094°32'0 0.0
2018-Jul-19 21:24N 29°31' W 094°32'0 0.6
2018-Jul-19 20:59N 29°31' W 094°32'2 4.7
2018-Jul-19 20:29N 29°30' W 094°35'2 4.8
2018-Jul-19 20:00N 29°29' W 094°37'2 4.8
2018-Jul-19 19:30N 29°28' W 094°40'2 4.8
2018-Jul-19 19:01N 29°27' W 094°42'3 5.2
2018-Jul-19 18:29N 29°25' W 094°44'2 4.2
2018-Jul-19 18:00N 29°23' W 094°46'2 4.5
2018-Jul-19 17:30N 29°22' W 094°48'2 4.8
2018-Jul-19 17:01N 29°24' W 094°49'3 5.0
2018-Jul-19 16:30N 29°27' W 094°50'3 5.2
2018-Jul-19 15:56N 29°29' W 094°52'2 5.2
2018-Jul-19 15:30N 29°31' W 094°53'3 5.3
2018-Jul-19 15:00N 29°33' W 094°55'5 5.4
2018-Jul-19 14:00N 29°38' W 094°58'3 5.8
2018-Jul-19 13:30N 29°41' W 094°59'3 5.5
2018-Jul-19 13:00N 29°43' W 095°01'2 4.9
2018-Jul-19 12:29N 29°44' W 095°04'2 4.9
2018-Jul-19 11:59N 29°46' W 095°06'1 1.1
2018-Jul-19 11:30N 29°46' W 095°06'0 0.1
2018-Jul-19 11:01N 29°46' W 095°06'0 1.0
2018-Jul-19 10:30N 29°46' W 095°06'2 2.9
2018-Jul-19 09:54N 29°44' W 095°07'2 5.6
2018-Jul-19 09:29N 29°44' W 095°09'2 5.2
2018-Jul-19 09:01N 29°44' W 095°12'0 0.5
2018-Jul-19 08:30N 29°44' W 095°12'0 0.0
2018-Jul-19 08:01N 29°44' W 095°12'0 0.0
2018-Jul-19 07:30N 29°44' W 095°12'0 0.0
2018-Jul-19 07:00N 29°44' W 095°12'0 0.0
2018-Jul-19 06:30N 29°44' W 095°12'0 0.0
2018-Jul-19 06:00N 29°44' W 095°12'0 0.0
2018-Jul-19 05:29N 29°44' W 095°12'0 0.0
2018-Jul-19 04:55N 29°44' W 095°12'0 0.0
2018-Jul-19 04:30N 29°44' W 095°12'0 0.0
2018-Jul-19 04:00N 29°44' W 095°12'0 0.0
2018-Jul-19 03:30N 29°44' W 095°12'0 0.0
2018-Jul-19 02:58N 29°44' W 095°12'0 0.0
2018-Jul-19 02:30N 29°44' W 095°12'1 0.2
2018-Jul-18 18:25N 29°45' W 095°11'3 5.3
2018-Jul-18 17:54N 29°44' W 095°08'2 4.9
2018-Jul-18 17:25N 29°45' W 095°06'1 2.9
2018-Jul-18 17:00N 29°46' W 095°06'0 0.2
2018-Jul-18 16:12N 29°46' W 095°06'0 0.0
2018-Jul-18 15:53N 29°46' W 095°06'0 0.3
2018-Jul-18 15:24N 29°46' W 095°06'1 2.0
2018-Jul-18 15:01N 29°46' W 095°05'3 5.8
2018-Jul-18 14:29N 29°44' W 095°08'4 3.3
2018-Jul-18 13:25N 29°44' W 095°12'0 0.0
2018-Jul-18 13:00N 29°44' W 095°12'0 0.0
2018-Jul-18 12:30N 29°44' W 095°12'0 0.0
2018-Jul-18 11:58N 29°44' W 095°12'0 0.0
2018-Jul-18 11:30N 29°44' W 095°12'0 0.0
2018-Jul-18 10:30N 29°44' W 095°12'0 0.0
2018-Jul-18 10:00N 29°44' W 095°12'0 0.0
2018-Jul-18 09:30N 29°44' W 095°12'0 0.0
2018-Jul-18 09:00N 29°44' W 095°12'0 0.0
2018-Jul-18 08:30N 29°44' W 095°12'0 0.0
2018-Jul-18 07:59N 29°44' W 095°12'0 0.0
2018-Jul-18 07:30N 29°44' W 095°12'0 0.0
2018-Jul-18 06:59N 29°44' W 095°12'0 0.0
2018-Jul-18 06:29N 29°44' W 095°12'0 0.0
2018-Jul-18 06:00N 29°44' W 095°12'0 0.0
2018-Jul-18 05:30N 29°44' W 095°12'0 0.0
2018-Jul-18 04:58N 29°44' W 095°12'0 0.0
2018-Jul-18 04:30N 29°44' W 095°12'0 0.0
2018-Jul-18 03:59N 29°44' W 095°12'0 0.0
2018-Jul-18 03:30N 29°44' W 095°12'0 0.0
2018-Jul-18 02:51N 29°44' W 095°12'0 0.0
2018-Jul-18 02:26N 29°44' W 095°12'0 0.0
2018-Jul-17 21:40N 29°44' W 095°12'2 3.3
2018-Jul-17 21:12N 29°45' W 095°11'1 5.7
2018-Jul-17 21:00N 29°44' W 095°09'3 5.8
2018-Jul-17 20:29N 29°45' W 095°06'2 2.6
2018-Jul-17 19:53N 29°46' W 095°06'0 0.1
2018-Jul-17 14:05N 29°47' W 095°06'0 0.0
2018-Jul-17 13:53N 29°47' W 095°06'0 0.0
2018-Jul-17 13:21N 29°47' W 095°06'0 0.0
2018-Jul-17 13:00N 29°47' W 095°06'0 0.0
2018-Jul-17 12:30N 29°47' W 095°06'0 0.0
2018-Jul-17 12:00N 29°47' W 095°06'0 0.0
2018-Jul-17 11:26N 29°47' W 095°06'0 0.0
2018-Jul-17 11:00N 29°47' W 095°06'0 0.0
2018-Jul-17 10:29N 29°47' W 095°06'0 0.0
2018-Jul-17 10:01N 29°47' W 095°06'0 0.0
2018-Jul-17 09:30N 29°47' W 095°06'0 0.0
2018-Jul-17 08:58N 29°47' W 095°06'0 0.0
2018-Jul-17 08:30N 29°47' W 095°06'0 0.0
2018-Jul-17 08:00N 29°47' W 095°06'0 0.0
2018-Jul-17 07:30N 29°47' W 095°06'0 0.0
2018-Jul-17 07:00N 29°47' W 095°06'0 0.0
2018-Jul-17 06:30N 29°47' W 095°06'0 0.0
2018-Jul-17 06:00N 29°47' W 095°06'0 0.0
2018-Jul-17 05:30N 29°47' W 095°06'0 0.0
2018-Jul-17 05:00N 29°47' W 095°06'0 0.0
2018-Jul-17 04:30N 29°47' W 095°06'0 0.9
2018-Jul-17 04:00N 29°46' W 095°06'0 0.2
2018-Jul-17 03:28N 29°46' W 095°06'0 0.0
2018-Jul-17 02:39N 29°46' W 095°06'0 0.5
2018-Jul-17 02:27N 29°46' W 095°06'0 0.1
2018-Jul-17 01:59N 29°46' W 095°06'2 3.4
2018-Jul-17 01:30N 29°46' W 095°04'3 5.3
2018-Jul-17 01:00N 29°44' W 095°02'2 4.8
2018-Jul-17 00:29N 29°42' W 095°00'5 5.5
2018-Jul-16 23:30N 29°37' W 094°57'3 5.9
2018-Jul-16 23:00N 29°35' W 094°56'3 6.1
2018-Jul-16 22:30N 29°32' W 094°54'3 5.9
2018-Jul-16 21:59N 29°30' W 094°52'3 6.1
2018-Jul-16 21:29N 29°27' W 094°50'3 5.9
2018-Jul-16 20:57N 29°24' W 094°49'2 5.0
2018-Jul-16 20:30N 29°22' W 094°47'3 5.7
2018-Jul-16 20:00N 29°24' W 094°45'3 5.7
2018-Jul-16 19:29N 29°26' W 094°42'3 5.1
2018-Jul-16 18:51N 29°28' W 094°39'2 5.1
2018-Jul-16 18:26N 29°29' W 094°37'3 5.3
2018-Jul-16 17:57N 29°30' W 094°34'2 5.2
2018-Jul-16 17:29N 29°31' W 094°32'5 5.0
2018-Jul-16 16:34N 29°34' W 094°28'0 5.2
2018-Jul-16 16:30N 29°34' W 094°27'1 1.0
2018-Jul-16 15:54N 29°34' W 094°27'1 1.5
2018-Jul-16 15:30N 29°34' W 094°26'2 4.5
2018-Jul-16 15:00N 29°36' W 094°24'2 5.0
2018-Jul-16 14:30N 29°36' W 094°22'2 3.4
2018-Jul-16 14:00N 29°37' W 094°20'3 5.4
2018-Jul-16 13:30N 29°38' W 094°17'3 5.5
2018-Jul-16 13:00N 29°40' W 094°14'2 4.5
2018-Jul-16 12:30N 29°41' W 094°12'3 5.8
2018-Jul-16 12:00N 29°42' W 094°09'2 5.0
2018-Jul-16 11:30N 29°43' W 094°07'3 5.6
2018-Jul-16 11:00N 29°45' W 094°04'1 2.9
2018-Jul-16 10:31N 29°46' W 094°03'2 4.5
2018-Jul-16 10:01N 29°47' W 094°01'3 5.1
2018-Jul-16 09:30N 29°49' W 093°59'3 5.4
2018-Jul-16 09:00N 29°51' W 093°57'4 7.5
2018-Jul-16 08:30N 29°54' W 093°54'4 7.4
2018-Jul-16 08:00N 29°57' W 093°52'3 5.6
2018-Jul-16 07:30N 29°59' W 093°49'3 6.6
2018-Jul-16 07:00N 30°01' W 093°46'3 6.2
2018-Jul-16 06:30N 30°03' W 093°44'3 5.8
2018-Jul-16 06:00N 30°04' W 093°40'3 5.9
2018-Jul-16 05:30N 30°04' W 093°37'2 4.1
2018-Jul-16 05:00N 30°04' W 093°35'2 3.3
2018-Jul-16 04:30N 30°04' W 093°33'2 3.6
2018-Jul-16 03:59N 30°04' W 093°30'2 3.6
2018-Jul-16 03:30N 30°04' W 093°28'1 2.4
2018-Jul-16 03:00N 30°04' W 093°27'2 3.1
2018-Jul-16 02:30N 30°04' W 093°25'2 3.9
2018-Jul-16 02:01N 30°04' W 093°23'2 4.4
2018-Jul-16 01:30N 30°04' W 093°21'2 3.1
2018-Jul-16 01:00N 30°05' W 093°20'1 1.7
2018-Jul-16 00:30N 30°06' W 093°19'1 1.3
2018-Jul-16 00:00N 30°06' W 093°18'1 1.9
2018-Jul-15 23:30N 30°05' W 093°17'1 1.1
2018-Jul-15 23:00N 30°05' W 093°17'0 0.0
2018-Jul-15 22:30N 30°05' W 093°17'0 0.1
2018-Jul-15 22:00N 30°05' W 093°17'0 0.0
2018-Jul-15 21:30N 30°05' W 093°17'0 0.0
2018-Jul-15 21:00N 30°05' W 093°17'0 0.0
2018-Jul-15 20:30N 30°05' W 093°17'0 0.0
2018-Jul-15 20:01N 30°05' W 093°17'0 0.0
2018-Jul-15 19:30N 30°05' W 093°17'0 0.0
2018-Jul-15 18:57N 30°05' W 093°17'0 0.0
2018-Jul-15 18:30N 30°05' W 093°17'0 0.0
2018-Jul-15 18:00N 30°05' W 093°17'0 0.0
2018-Jul-15 17:30N 30°05' W 093°17'0 0.0
2018-Jul-15 17:00N 30°05' W 093°17'0 0.0
2018-Jul-15 16:30N 30°05' W 093°17'0 0.0
2018-Jul-15 16:00N 30°05' W 093°17'0 0.0
2018-Jul-15 15:31N 30°05' W 093°17'0 0.0
2018-Jul-15 15:00N 30°05' W 093°17'0 0.0
2018-Jul-15 14:30N 30°05' W 093°17'0 0.0
2018-Jul-15 14:00N 30°05' W 093°17'0 0.1
2018-Jul-15 13:30N 30°05' W 093°17'0 0.0
2018-Jul-15 13:00N 30°05' W 093°17'0 0.0
2018-Jul-15 12:30N 30°05' W 093°17'0 0.3
2018-Jul-15 12:00N 30°05' W 093°17'1 1.2
2018-Jul-15 11:29N 30°04' W 093°16'0 0.2
2018-Jul-15 11:00N 30°04' W 093°16'1 1.5
2018-Jul-15 10:30N 30°03' W 093°16'0 0.7
2018-Jul-15 10:00N 30°03' W 093°16'0 0.1
2018-Jul-15 09:30N 30°03' W 093°16'2 3.4
2018-Jul-15 08:59N 30°02' W 093°14'2 4.5
2018-Jul-15 08:30N 29°60' W 093°13'0 0.5
2018-Jul-15 08:00N 29°60' W 093°13'0 0.0
2018-Jul-15 07:30N 29°60' W 093°13'0 0.0
2018-Jul-15 07:00N 29°60' W 093°13'0 0.0
2018-Jul-15 06:30N 29°60' W 093°13'1 1.0
2018-Jul-15 06:00N 29°59' W 093°13'1 1.9
2018-Jul-15 05:30N 29°59' W 093°12'0 0.0
2018-Jul-15 05:00N 29°59' W 093°12'0 0.0
2018-Jul-15 04:30N 29°59' W 093°12'0 0.0
2018-Jul-15 04:00N 29°59' W 093°12'0 0.0
2018-Jul-15 03:30N 29°59' W 093°12'0 0.0
2018-Jul-15 03:00N 29°59' W 093°12'0 0.0
2018-Jul-15 02:30N 29°59' W 093°12'0 0.0
2018-Jul-15 02:00N 29°59' W 093°12'0 0.0
2018-Jul-15 01:30N 29°59' W 093°12'0 0.0
2018-Jul-15 01:00N 29°59' W 093°12'0 0.0
2018-Jul-15 00:30N 29°59' W 093°12'0 0.0
2018-Jul-15 00:00N 29°59' W 093°12'0 0.0
2018-Jul-14 23:30N 29°59' W 093°12'0 0.0
2018-Jul-14 23:00N 29°59' W 093°12'0 0.0
2018-Jul-14 22:30N 29°59' W 093°12'0 0.0
2018-Jul-14 22:00N 29°59' W 093°12'0 0.0
2018-Jul-14 21:30N 29°59' W 093°12'0 0.0
2018-Jul-14 21:00N 29°59' W 093°12'0 0.1
2018-Jul-14 20:30N 29°59' W 093°12'0 0.0
2018-Jul-14 20:00N 29°59' W 093°12'0 0.0
2018-Jul-14 19:30N 29°59' W 093°12'0 0.0
2018-Jul-14 19:00N 29°59' W 093°12'0 0.0
2018-Jul-14 18:30N 29°59' W 093°12'0 0.0
2018-Jul-14 18:00N 29°59' W 093°12'0 0.0
2018-Jul-14 17:30N 29°59' W 093°12'0 0.0
2018-Jul-14 17:00N 29°59' W 093°12'0 0.0
2018-Jul-14 16:30N 29°59' W 093°12'1 2.0
2018-Jul-14 16:00N 29°58' W 093°11'1 3.0
2018-Jul-14 15:30N 29°57' W 093°10'1 2.6
2018-Jul-14 15:00N 29°56' W 093°09'1 1.8
2018-Jul-14 14:30N 29°56' W 093°08'0 0.0
2018-Jul-14 13:30N 29°56' W 093°08'0 0.0
2018-Jul-14 13:00N 29°56' W 093°08'0 0.0
2018-Jul-14 12:30N 29°56' W 093°08'0 0.0
2018-Jul-14 12:00N 29°56' W 093°08'0 0.0
2018-Jul-14 11:30N 29°56' W 093°08'0 0.0
2018-Jul-14 11:00N 29°56' W 093°08'0 0.0
2018-Jul-14 10:30N 29°56' W 093°08'0 0.0
2018-Jul-14 10:00N 29°56' W 093°08'0 0.0
2018-Jul-14 09:30N 29°56' W 093°08'0 0.0
2018-Jul-14 09:00N 29°56' W 093°08'0 0.0
2018-Jul-14 08:30N 29°56' W 093°08'0 0.0
2018-Jul-14 08:00N 29°56' W 093°08'0 0.0
2018-Jul-14 07:30N 29°56' W 093°08'0 0.0
2018-Jul-14 07:00N 29°56' W 093°08'0 0.0
2018-Jul-14 06:30N 29°56' W 093°08'0 0.0
2018-Jul-14 06:01N 29°56' W 093°08'0 0.0
2018-Jul-14 05:31N 29°56' W 093°08'0 0.0
2018-Jul-14 05:00N 29°56' W 093°08'0 0.0
2018-Jul-14 04:30N 29°56' W 093°08'0 0.0
2018-Jul-14 04:00N 29°56' W 093°08'0 0.0
2018-Jul-14 03:31N 29°56' W 093°08'0 0.0
2018-Jul-14 03:00N 29°56' W 093°08'0 0.2
2018-Jul-14 02:30N 29°56' W 093°08'0 0.0
2018-Jul-14 01:55N 29°56' W 093°08'0 0.0
2018-Jul-14 01:26N 29°56' W 093°08'0 0.0
2018-Jul-14 00:51N 29°56' W 093°08'0 0.0
2018-Jul-14 00:23N 29°56' W 093°08'0 0.0
2018-Jul-14 00:00N 29°56' W 093°08'1 2.6
2018-Jul-13 23:27N 29°56' W 093°06'2 4.6
2018-Jul-13 22:59N 29°56' W 093°03'0 0.5
2018-Jul-13 22:30N 29°56' W 093°03'0 0.0
2018-Jul-13 21:59N 29°56' W 093°03'0 0.0
2018-Jul-13 21:28N 29°56' W 093°03'0 0.0
2018-Jul-13 20:56N 29°56' W 093°03'0 0.0
2018-Jul-13 20:29N 29°56' W 093°03'0 0.0
2018-Jul-13 20:00N 29°56' W 093°03'0 0.0
2018-Jul-13 19:24N 29°56' W 093°03'0 0.0
2018-Jul-13 19:00N 29°56' W 093°03'0 0.0
2018-Jul-13 18:29N 29°56' W 093°03'0 0.0
2018-Jul-13 18:00N 29°56' W 093°03'0 0.0
2018-Jul-13 17:30N 29°56' W 093°03'0 0.3
2018-Jul-13 17:00N 29°56' W 093°03'6 0.6
2018-Jul-13 06:55N 29°56' W 092°56'5 3.9
2018-Jul-13 05:35N 29°58' W 092°50'21 5.1
2018-Jul-13 01:27N 29°53' W 092°26'3 5.1
2018-Jul-13 00:57N 29°53' W 092°23'2 5.0
2018-Jul-13 00:30N 29°51' W 092°22'3 5.2
2018-Jul-13 00:00N 29°50' W 092°19'2 3.7
2018-Jul-12 23:31N 29°49' W 092°17'2 3.8
2018-Jul-12 22:59N 29°48' W 092°15'2 5.0
2018-Jul-12 22:30N 29°47' W 092°13'1 1.4
2018-Jul-12 22:00N 29°47' W 092°12'2 4.8
2018-Jul-12 21:31N 29°47' W 092°09'3 5.8
2018-Jul-12 21:00N 29°48' W 092°06'3 5.8
2018-Jul-12 20:30N 29°49' W 092°03'3 5.6
2018-Jul-12 20:00N 29°50' W 091°60'3 5.5
2018-Jul-12 19:31N 29°51' W 091°57'  

Dump ship's entire track history